Time;durP1;ratioP1;P1;durP2;ratioP2;P2;SDS_P1;SDS_P2;PMS_P1;PMS_P2;Temp;Humidity;BMP_temperature;BMP_pressure;BME280_temperature;BME280_humidity;BME280_pressure;Samples;Min_cycle;Max_cycle;Signal;HPM_P1;HPM_P2
2023/09/30 00:01:10;;;;;;;9.77;8.77;;;22.30;99.90;;;;;;6229760;28;94333;-72
2023/09/30 00:04:14;;;;;;;9.25;8.35;;;22.30;99.90;;;;;;6220368;28;94368;-72
2023/09/30 00:07:16;;;;;;;9.25;8.35;;;22.40;99.90;;;;;;6219898;28;94188;-72
2023/09/30 00:10:17;;;;;;;9.20;8.30;;;22.40;99.90;;;;;;6228148;28;92246;-72
2023/09/30 00:13:19;;;;;;;9.65;8.65;;;22.30;99.90;;;;;;6220534;28;94076;-71
2023/09/30 00:16:21;;;;;;;10.65;8.95;;;22.30;99.90;;;;;;6218511;28;94141;-71
2023/09/30 00:19:25;;;;;;;9.63;8.60;;;22.30;99.90;;;;;;6227254;28;95006;-72
2023/09/30 00:22:28;;;;;;;9.35;8.35;;;22.40;99.90;;;;;;6217328;28;94430;-72
2023/09/30 00:25:30;;;;;;;9.10;8.13;;;22.30;99.90;;;;;;6227977;28;93949;-71
2023/09/30 00:28:32;;;;;;;9.65;8.52;;;22.30;99.90;;;;;;6229929;28;94141;-71
2023/09/30 00:31:34;;;;;;;10.07;8.80;;;22.40;99.90;;;;;;6229450;28;94112;-71
2023/09/30 00:34:37;;;;;;;9.18;8.27;;;22.30;99.90;;;;;;6230486;28;95409;-72
2023/09/30 00:37:40;;;;;;;9.15;8.15;;;22.30;99.90;;;;;;6229747;28;94513;-71
2023/09/30 00:40:48;;;;;;;9.63;8.55;;;22.30;99.90;;;;;;6228165;28;93196;-71
2023/09/30 00:43:50;;;;;;;9.23;8.23;;;22.30;99.90;;;;;;6229954;28;94811;-71
2023/09/30 00:46:52;;;;;;;9.27;8.30;;;22.40;99.90;;;;;;6228605;28;94076;-71
2023/09/30 00:49:56;;;;;;;9.90;8.15;;;22.30;99.90;;;;;;6226793;28;95142;-71
2023/09/30 00:52:58;;;;;;;9.38;8.18;;;22.30;99.90;;;;;;6225260;28;94105;-71
2023/09/30 00:56:01;;;;;;;10.40;9.30;;;22.30;99.90;;;;;;6222433;28;94906;-71
2023/09/30 00:59:04;;;;;;;10.63;8.68;;;22.40;99.90;;;;;;6213080;28;94100;-71
2023/09/30 01:02:07;;;;;;;9.35;8.43;;;22.30;99.90;;;;;;6227559;28;94070;-71
2023/09/30 01:05:11;;;;;;;8.85;7.95;;;22.30;99.90;;;;;;6215161;28;94149;-71
2023/09/30 01:08:13;;;;;;;9.52;8.32;;;22.40;99.90;;;;;;6229363;28;94059;-71
2023/09/30 01:11:15;;;;;;;9.02;7.97;;;22.30;99.90;;;;;;6224724;28;93344;-71
2023/09/30 01:14:27;;;;;;;9.45;8.45;;;22.30;99.90;;;;;;6228528;28;92992;-71
2023/09/30 01:17:29;;;;;;;10.10;8.15;;;22.30;99.90;;;;;;6227074;28;94204;-71
2023/09/30 01:20:34;;;;;;;10.60;8.63;;;22.30;99.90;;;;;;6224764;28;95037;-71
2023/09/30 01:23:37;;;;;;;8.60;7.78;;;22.40;99.90;;;;;;6225908;28;94088;-72
2023/09/30 01:26:39;;;;;;;8.55;7.70;;;22.30;99.90;;;;;;6225550;28;92971;-72
2023/09/30 01:29:42;;;;;;;9.40;8.20;;;22.30;99.90;;;;;;6217715;28;94505;-71
2023/09/30 01:32:43;;;;;;;8.95;8.05;;;22.40;99.90;;;;;;6220316;28;94230;-72
2023/09/30 01:35:45;;;;;;;9.48;8.27;;;22.30;99.90;;;;;;6225318;28;94097;-72
2023/09/30 01:38:49;;;;;;;9.68;8.25;;;22.30;99.90;;;;;;6228565;28;94323;-72
2023/09/30 01:41:51;;;;;;;8.98;7.88;;;22.30;99.90;;;;;;6215524;28;93392;-72
2023/09/30 01:44:53;;;;;;;9.18;8.18;;;22.30;99.90;;;;;;6220656;28;94499;-72
2023/09/30 01:47:55;;;;;;;9.32;7.95;;;22.30;99.90;;;;;;6229354;28;94041;-72
2023/09/30 01:50:57;;;;;;;9.32;8.30;;;22.30;99.90;;;;;;6227587;28;95371;-71
2023/09/30 01:54:00;;;;;;;8.73;7.82;;;22.40;99.90;;;;;;6228541;28;94371;-71
2023/09/30 01:57:02;;;;;;;8.73;7.68;;;22.40;99.90;;;;;;6229292;28;94220;-71
2023/09/30 02:00:09;;;;;;;10.05;8.00;;;22.30;99.90;;;;;;6227860;28;94537;-71
2023/09/30 02:03:11;;;;;;;10.27;8.13;;;22.30;99.90;;;;;;6227967;28;94220;-72
2023/09/30 02:06:13;;;;;;;8.77;7.88;;;22.30;99.90;;;;;;6225551;28;94084;-72
2023/09/30 02:09:17;;;;;;;8.98;7.65;;;22.30;99.90;;;;;;6219405;28;96227;-72
2023/09/30 02:12:19;;;;;;;10.90;8.00;;;22.30;99.90;;;;;;6228125;28;94270;-72
2023/09/30 02:15:21;;;;;;;8.98;7.93;;;22.30;99.90;;;;;;6227034;28;94066;-72
2023/09/30 02:18:23;;;;;;;10.32;8.50;;;22.30;99.90;;;;;;6228259;28;94077;-72
2023/09/30 02:21:26;;;;;;;11.90;8.85;;;22.30;99.90;;;;;;6222815;28;95166;-72
2023/09/30 02:24:29;;;;;;;8.63;7.75;;;22.30;99.90;;;;;;6222016;28;94086;-71
2023/09/30 02:27:31;;;;;;;9.70;7.95;;;22.30;99.90;;;;;;6225385;28;94345;-72
2023/09/30 02:30:33;;;;;;;8.45;7.60;;;22.30;99.90;;;;;;6225733;28;94425;-71
2023/09/30 02:33:37;;;;;;;10.20;8.25;;;22.40;99.90;;;;;;6220217;28;94050;-72
2023/09/30 02:36:39;;;;;;;10.38;8.20;;;22.30;99.90;;;;;;6225174;28;94199;-72
2023/09/30 02:39:43;;;;;;;9.98;8.23;;;22.30;99.90;;;;;;6227887;28;94040;-72
2023/09/30 02:42:45;;;;;;;9.43;8.05;;;22.30;99.90;;;;;;6228717;28;95049;-72
2023/09/30 02:45:47;;;;;;;9.60;7.88;;;22.30;99.90;;;;;;6218614;28;94187;-72
2023/09/30 02:48:49;;;;;;;9.38;8.13;;;22.30;99.90;;;;;;6219095;28;94042;-72
2023/09/30 02:51:51;;;;;;;10.48;7.90;;;22.30;99.90;;;;;;6214588;28;95031;-72
2023/09/30 02:54:54;;;;;;;8.90;7.75;;;22.30;99.90;;;;;;6217014;28;94538;-72
2023/09/30 02:57:57;;;;;;;10.75;8.25;;;22.30;99.90;;;;;;6216269;28;94420;-71
2023/09/30 03:01:00;;;;;;;9.00;7.65;;;22.30;99.90;;;;;;6225725;28;94386;-71
2023/09/30 03:04:02;;;;;;;8.85;7.85;;;22.30;99.90;;;;;;6226187;28;94046;-72
2023/09/30 03:07:08;;;;;;;8.55;7.57;;;22.30;99.90;;;;;;6226484;28;94569;-72
2023/09/30 03:10:13;;;;;;;9.38;8.02;;;22.30;99.90;;;;;;6220111;28;94407;-72
2023/09/30 03:13:15;;;;;;;9.20;8.20;;;22.20;99.90;;;;;;6223335;28;93365;-72
2023/09/30 03:16:17;;;;;;;9.35;8.07;;;22.20;99.90;;;;;;6227576;28;94127;-71
2023/09/30 03:19:19;;;;;;;9.15;8.10;;;22.20;99.90;;;;;;6226291;28;94391;-72
2023/09/30 03:22:21;;;;;;;9.55;7.93;;;22.20;99.90;;;;;;6222933;28;94986;-72
2023/09/30 03:25:25;;;;;;;8.32;7.22;;;22.30;99.90;;;;;;6217316;28;94046;-71
2023/09/30 03:28:27;;;;;;;11.82;8.77;;;22.30;99.90;;;;;;6220647;28;94158;-72
2023/09/30 03:31:29;;;;;;;9.27;7.90;;;22.30;99.90;;;;;;6231597;28;94219;-71
2023/09/30 03:34:31;;;;;;;9.10;7.82;;;22.30;99.90;;;;;;6232003;28;95043;-72
2023/09/30 03:37:34;;;;;;;8.80;7.50;;;22.30;99.90;;;;;;6217522;28;93706;-72
2023/09/30 03:40:38;;;;;;;8.25;7.32;;;22.30;99.90;;;;;;6228570;28;93993;-71
2023/09/30 03:43:41;;;;;;;10.05;8.05;;;22.30;99.90;;;;;;6232044;28;93462;-71
2023/09/30 03:46:43;;;;;;;10.98;8.25;;;22.30;99.90;;;;;;6227018;28;94109;-72
2023/09/30 03:49:44;;;;;;;8.65;7.75;;;22.30;99.90;;;;;;6223110;28;94453;-71
2023/09/30 03:52:47;;;;;;;9.82;8.23;;;22.30;99.90;;;;;;6222129;28;95338;-71
2023/09/30 03:55:50;;;;;;;10.95;8.38;;;22.30;99.90;;;;;;6221459;28;93879;-71
2023/09/30 03:58:52;;;;;;;9.02;7.63;;;22.30;99.90;;;;;;6219763;28;94104;-71
2023/09/30 04:01:54;;;;;;;8.73;7.57;;;22.20;99.90;;;;;;6222243;28;94057;-71
2023/09/30 04:04:57;;;;;;;9.00;7.78;;;22.30;99.90;;;;;;6226185;28;94029;-71
2023/09/30 04:07:59;;;;;;;9.68;8.18;;;22.30;99.90;;;;;;6230353;28;94502;-71
2023/09/30 04:11:03;;;;;;;10.73;8.20;;;22.20;99.90;;;;;;6226223;28;93370;-71
2023/09/30 04:14:06;;;;;;;10.10;8.00;;;22.30;99.90;;;;;;6229627;28;93394;-71
2023/09/30 04:17:09;;;;;;;11.35;8.52;;;22.30;99.90;;;;;;6229494;28;94441;-71
2023/09/30 04:20:15;;;;;;;9.32;7.45;;;22.30;99.90;;;;;;6230062;28;93756;-71
2023/09/30 04:23:20;;;;;;;10.15;7.88;;;22.30;99.90;;;;;;6218298;28;95103;-71
2023/09/30 04:26:23;;;;;;;9.43;7.63;;;22.30;99.90;;;;;;6229396;28;93946;-72
2023/09/30 04:29:25;;;;;;;9.50;7.82;;;22.30;99.90;;;;;;6216902;28;94123;-72
2023/09/30 04:32:27;;;;;;;9.82;8.35;;;22.30;99.90;;;;;;6230873;28;93974;-71
2023/09/30 04:35:30;;;;;;;9.32;7.85;;;22.30;99.90;;;;;;6229687;28;94584;-71
2023/09/30 04:38:32;;;;;;;9.55;7.88;;;22.30;99.90;;;;;;6228736;28;93204;-71
2023/09/30 04:41:36;;;;;;;9.05;7.63;;;22.30;99.90;;;;;;6229040;28;93041;-71
2023/09/30 04:44:38;;;;;;;9.55;7.90;;;22.30;99.90;;;;;;6229481;28;92564;-71
2023/09/30 04:47:40;;;;;;;10.13;8.15;;;22.20;99.90;;;;;;6228302;28;94224;-72
2023/09/30 04:50:42;;;;;;;10.20;8.05;;;22.20;99.90;;;;;;6219073;28;94267;-72
2023/09/30 04:53:45;;;;;;;11.25;8.60;;;22.30;99.90;;;;;;6226100;28;94959;-71
2023/09/30 04:56:48;;;;;;;8.90;7.70;;;22.20;99.90;;;;;;6225011;28;94058;-71
2023/09/30 04:59:50;;;;;;;9.98;8.27;;;22.20;99.90;;;;;;6227307;28;94029;-71
2023/09/30 05:02:53;;;;;;;9.38;7.70;;;22.20;99.90;;;;;;6228811;28;94130;-71
2023/09/30 05:05:56;;;;;;;11.68;8.43;;;22.20;99.90;;;;;;6229019;28;94428;-71
2023/09/30 05:08:58;;;;;;;9.43;7.57;;;22.20;99.90;;;;;;6228237;28;94127;-71
2023/09/30 05:12:04;;;;;;;9.52;7.90;;;22.20;99.90;;;;;;6222705;28;96036;-71
2023/09/30 05:15:07;;;;;;;9.45;7.80;;;22.20;99.90;;;;;;6228268;28;93317;-71
2023/09/30 05:18:09;;;;;;;10.07;8.27;;;22.30;99.90;;;;;;6228603;28;94025;-71
2023/09/30 05:21:11;;;;;;;9.98;7.95;;;22.30;99.90;;;;;;6228062;28;94470;-72
2023/09/30 05:24:13;;;;;;;9.70;7.60;;;22.20;99.90;;;;;;6226517;28;93816;-71
2023/09/30 05:27:16;;;;;;;10.23;7.65;;;22.30;99.90;;;;;;6228456;28;94467;-72
2023/09/30 05:30:20;;;;;;;9.45;7.72;;;22.20;99.90;;;;;;6228522;28;92959;-71
2023/09/30 05:33:22;;;;;;;9.65;7.70;;;22.20;99.90;;;;;;6228834;28;94410;-71
2023/09/30 05:36:24;;;;;;;10.77;8.32;;;22.20;99.90;;;;;;6217288;28;94272;-71
2023/09/30 05:39:28;;;;;;;11.20;8.45;;;22.20;99.90;;;;;;6229544;28;93088;-71
2023/09/30 05:42:32;;;;;;;10.18;8.40;;;22.20;99.90;;;;;;6225187;28;94047;-71
2023/09/30 05:45:35;;;;;;;10.75;8.15;;;22.20;99.90;;;;;;6226385;28;93407;-71
2023/09/30 05:48:38;;;;;;;10.27;8.27;;;22.20;99.90;;;;;;6223471;28;94328;-72
2023/09/30 05:51:41;;;;;;;10.00;8.18;;;22.20;99.90;;;;;;6228486;28;94028;-71
2023/09/30 05:54:43;;;;;;;10.52;8.48;;;22.20;99.90;;;;;;6217269;28;95047;-71
2023/09/30 05:57:47;;;;;;;12.65;8.73;;;22.30;99.90;;;;;;6225495;28;94173;-71
2023/09/30 06:00:50;;;;;;;10.55;8.32;;;22.20;99.90;;;;;;6228518;28;94118;-71
2023/09/30 06:03:52;;;;;;;9.48;8.18;;;22.30;99.90;;;;;;6217091;28;94070;-71
2023/09/30 06:06:54;;;;;;;10.02;8.25;;;22.20;99.90;;;;;;6221027;28;94095;-71
2023/09/30 06:09:56;;;;;;;9.52;7.95;;;22.20;99.90;;;;;;6227684;28;93949;-69
2023/09/30 06:12:59;;;;;;;12.32;9.02;;;22.30;99.90;;;;;;6219735;28;94066;-70
2023/09/30 06:16:02;;;;;;;10.57;8.07;;;22.30;99.90;;;;;;6215133;28;93731;-70
2023/09/30 06:19:04;;;;;;;10.73;8.32;;;22.20;99.90;;;;;;6226048;28;94134;-69
2023/09/30 06:22:06;;;;;;;10.35;8.18;;;22.20;99.90;;;;;;6225306;28;94090;-70
2023/09/30 06:25:08;;;;;;;10.65;8.52;;;22.20;99.90;;;;;;6227122;28;94832;-69
2023/09/30 06:28:13;;;;;;;9.75;8.20;;;22.20;99.90;;;;;;6223118;28;95333;-69
2023/09/30 06:31:17;;;;;;;10.60;8.38;;;22.20;99.90;;;;;;6219789;28;93828;-70
2023/09/30 06:34:18;;;;;;;9.15;7.35;;;22.30;99.90;;;;;;6213047;28;94046;-70
2023/09/30 06:37:20;;;;;;;9.77;8.00;;;22.20;99.90;;;;;;6226778;28;94044;-70
2023/09/30 06:40:23;;;;;;;10.63;8.50;;;22.20;99.90;;;;;;6214804;28;94229;-70
2023/09/30 06:43:27;;;;;;;10.40;8.30;;;22.20;99.90;;;;;;6227343;28;94185;-71
2023/09/30 06:46:29;;;;;;;10.70;8.63;;;22.20;99.90;;;;;;6227991;28;93490;-71
2023/09/30 06:49:34;;;;;;;11.63;8.10;;;22.20;99.90;;;;;;6227676;28;94079;-70
2023/09/30 06:52:37;;;;;;;12.88;9.27;;;22.30;99.90;;;;;;6223707;28;94050;-71
2023/09/30 06:55:40;;;;;;;10.13;8.02;;;22.30;99.90;;;;;;6214740;28;95177;-71
2023/09/30 06:58:44;;;;;;;9.35;7.57;;;22.30;99.90;;;;;;6226635;28;94102;-70
2023/09/30 07:01:46;;;;;;;10.35;7.88;;;22.30;99.90;;;;;;6225393;28;94071;-72
2023/09/30 07:04:48;;;;;;;10.65;8.35;;;22.30;99.90;;;;;;6219583;28;94032;-72
2023/09/30 07:07:51;;;;;;;10.95;7.93;;;22.40;99.90;;;;;;6227607;28;93891;-72
2023/09/30 07:10:53;;;;;;;11.00;8.48;;;22.30;99.90;;;;;;6226456;28;94280;-72
2023/09/30 07:13:57;;;;;;;10.98;8.27;;;22.30;99.90;;;;;;6227565;28;94124;-72
2023/09/30 07:16:59;;;;;;;9.40;7.93;;;22.40;99.90;;;;;;6222911;28;93428;-72
2023/09/30 07:20:02;;;;;;;11.27;8.75;;;22.40;99.90;;;;;;6224262;28;94201;-72
2023/09/30 07:23:04;;;;;;;9.80;7.78;;;22.40;99.90;;;;;;6226529;28;93937;-72
2023/09/30 07:26:06;;;;;;;11.25;8.27;;;22.40;99.90;;;;;;6224609;28;95029;-73
2023/09/30 07:29:11;;;;;;;11.82;8.15;;;22.40;99.90;;;;;;6224779;28;94071;-72
2023/09/30 07:32:13;;;;;;;11.63;8.40;;;22.40;99.90;;;;;;6218144;28;94185;-72
2023/09/30 07:35:15;;;;;;;11.32;8.60;;;22.40;99.90;;;;;;6223986;28;94065;-72
2023/09/30 07:38:17;;;;;;;12.18;8.18;;;22.40;99.90;;;;;;6226549;28;94192;-72
2023/09/30 07:41:19;;;;;;;11.93;7.75;;;22.40;99.90;;;;;;6226404;28;94042;-72
2023/09/30 07:44:22;;;;;;;11.98;7.53;;;22.40;99.90;;;;;;6226887;28;94046;-73
2023/09/30 07:47:24;;;;;;;10.50;7.35;;;22.40;99.90;;;;;;6227468;28;93379;-73
2023/09/30 07:50:26;;;;;;;12.50;7.80;;;22.40;99.90;;;;;;6213669;28;94085;-72
2023/09/30 07:53:28;;;;;;;10.93;7.20;;;22.40;99.90;;;;;;6226835;28;93335;-72
2023/09/30 07:56:30;;;;;;;10.55;7.03;;;22.30;99.90;;;;;;6226173;28;95178;-73
2023/09/30 07:59:34;;;;;;;11.80;7.05;;;22.40;99.90;;;;;;6219174;28;94088;-72
2023/09/30 08:02:36;;;;;;;12.18;7.68;;;22.30;99.90;;;;;;6222744;28;94134;-73
2023/09/30 08:05:38;;;;;;;11.80;7.10;;;22.30;99.90;;;;;;6217088;28;94382;-73
2023/09/30 08:08:40;;;;;;;10.52;7.07;;;22.30;99.90;;;;;;6221978;28;94899;-73
2023/09/30 08:11:43;;;;;;;10.57;7.28;;;22.30;99.90;;;;;;6226025;28;94067;-73
2023/09/30 08:14:46;;;;;;;12.05;6.55;;;22.30;99.90;;;;;;6230966;28;94298;-73
2023/09/30 08:17:48;;;;;;;10.27;6.63;;;22.30;99.90;;;;;;6229892;28;93544;-72
2023/09/30 08:20:50;;;;;;;10.82;6.60;;;22.30;99.90;;;;;;6231204;28;94335;-73
2023/09/30 08:23:52;;;;;;;10.15;6.60;;;22.30;99.90;;;;;;6228040;28;94190;-72
2023/09/30 08:26:55;;;;;;;10.73;6.38;;;22.30;99.90;;;;;;6228554;28;95009;-73
2023/09/30 08:29:58;;;;;;;10.30;6.13;;;22.40;99.90;;;;;;6230726;28;92974;-72
2023/09/30 08:33:00;;;;;;;9.85;6.00;;;22.40;99.90;;;;;;6230139;28;93361;-72
2023/09/30 08:36:07;;;;;;;10.85;6.30;;;22.40;99.90;;;;;;6230848;28;94958;-72
2023/09/30 08:39:10;;;;;;;10.73;6.38;;;22.30;99.90;;;;;;6229502;28;94145;-72
2023/09/30 08:42:12;;;;;;;11.55;6.47;;;22.40;99.90;;;;;;6228519;28;93913;-72
2023/09/30 08:45:18;;;;;;;10.90;6.65;;;22.30;99.90;;;;;;6229389;28;93872;-73
2023/09/30 08:48:22;;;;;;;10.10;6.13;;;22.40;99.90;;;;;;6221850;28;93379;-72
2023/09/30 08:51:24;;;;;;;8.88;5.60;;;22.40;99.90;;;;;;6218394;28;94156;-72
2023/09/30 08:54:26;;;;;;;9.82;5.68;;;22.40;99.90;;;;;;6225740;28;94053;-72
2023/09/30 08:57:30;;;;;;;9.82;5.43;;;22.40;99.90;;;;;;6224791;28;94957;-73
2023/09/30 09:00:33;;;;;;;9.10;5.55;;;22.40;99.90;;;;;;6229099;28;93985;-72
2023/09/30 09:03:36;;;;;;;8.95;5.82;;;22.30;99.90;;;;;;6229366;28;94097;-73
2023/09/30 09:06:38;;;;;;;9.70;5.50;;;22.40;99.90;;;;;;6229249;28;93944;-72
2023/09/30 09:09:40;;;;;;;10.35;5.70;;;22.40;99.90;;;;;;6229202;28;94016;-72
2023/09/30 09:12:42;;;;;;;11.40;6.03;;;22.40;99.90;;;;;;6228478;28;92939;-73
2023/09/30 09:15:46;;;;;;;9.13;5.97;;;22.40;99.90;;;;;;6227975;28;94088;-72
2023/09/30 09:18:48;;;;;;;9.70;5.82;;;22.40;99.90;;;;;;6229115;28;93371;-72
2023/09/30 09:21:57;;;;;;;11.93;6.60;;;22.30;99.90;;;;;;6227894;28;94148;-73
2023/09/30 09:25:00;;;;;;;11.82;6.18;;;22.40;99.90;;;;;;6223327;28;93126;-71
2023/09/30 09:28:02;;;;;;;12.00;6.75;;;22.40;99.90;;;;;;6220435;28;95329;-71
2023/09/30 09:31:21;;;;;;;11.60;6.90;;;22.40;99.90;;;;;;6229536;28;94073;-71
2023/09/30 09:34:23;;;;;;;12.57;7.43;;;22.30;99.90;;;;;;6227149;28;94155;-71
2023/09/30 09:37:25;;;;;;;11.23;6.68;;;22.30;99.90;;;;;;6215255;28;94208;-71
2023/09/30 09:40:29;;;;;;;11.48;6.90;;;22.40;99.90;;;;;;6219879;28;94269;-70
2023/09/30 09:43:34;;;;;;;11.90;7.25;;;22.40;99.90;;;;;;6225667;28;94072;-70
2023/09/30 09:46:38;;;;;;;12.07;7.38;;;22.40;99.90;;;;;;6217726;28;93321;-70
2023/09/30 09:49:40;;;;;;;11.98;7.22;;;22.40;99.90;;;;;;6229285;28;93457;-70
2023/09/30 09:52:43;;;;;;;10.98;7.05;;;22.40;99.90;;;;;;6228509;28;94039;-70
2023/09/30 09:55:46;;;;;;;11.90;7.22;;;22.40;99.90;;;;;;6224894;28;94319;-71
2023/09/30 09:58:49;;;;;;;11.85;7.53;;;22.40;99.90;;;;;;6223205;28;94997;-72
2023/09/30 10:01:53;;;;;;;12.52;7.70;;;22.40;99.90;;;;;;6221474;28;94289;-73
2023/09/30 10:04:56;;;;;;;13.35;7.50;;;22.40;99.90;;;;;;6228826;28;94239;-73
2023/09/30 10:08:04;;;;;;;14.05;7.80;;;22.40;99.90;;;;;;6224967;28;92930;-73
2023/09/30 10:11:06;;;;;;;12.65;7.28;;;22.40;99.90;;;;;;6222037;28;94083;-73
2023/09/30 10:14:14;;;;;;;14.30;7.80;;;22.40;99.90;;;;;;6223356;28;94027;-73
2023/09/30 10:17:18;;;;;;;12.43;7.53;;;22.40;99.90;;;;;;6223363;27;94100;-72
2023/09/30 10:20:28;;;;;;;12.32;7.50;;;22.50;99.90;;;;;;6226673;28;93357;-73
2023/09/30 10:23:33;;;;;;;13.13;7.80;;;22.40;99.90;;;;;;6227542;28;94446;-73
2023/09/30 10:26:34;;;;;;;14.38;7.95;;;22.50;99.90;;;;;;6228469;28;92961;-73
2023/09/30 10:29:41;;;;;;;12.73;7.80;;;22.50;99.90;;;;;;6226955;28;95076;-72
2023/09/30 10:33:14;;;;;;;13.90;8.43;;;22.50;99.90;;;;;;6226244;28;94023;-73
2023/09/30 10:36:28;;;;;;;13.55;8.48;;;22.50;99.90;;;;;;6215429;28;93955;-72
2023/09/30 10:39:56;;;;;;;13.57;8.52;;;22.50;99.90;;;;;;6227621;28;94052;-73
2023/09/30 10:42:58;;;;;;;15.45;8.75;;;22.40;99.90;;;;;;6226654;28;94430;-73
2023/09/30 10:46:00;;;;;;;13.32;8.23;;;22.50;99.90;;;;;;6220752;28;94136;-73
2023/09/30 10:49:35;;;;;;;17.20;9.68;;;22.40;99.90;;;;;;6225169;28;94213;-73
2023/09/30 10:52:38;;;;;;;15.85;9.02;;;22.50;99.90;;;;;;6222062;28;92423;-73
2023/09/30 10:55:42;;;;;;;15.13;8.77;;;22.50;99.90;;;;;;6224133;28;94085;-73
2023/09/30 10:58:45;;;;;;;15.65;9.18;;;22.50;99.90;;;;;;6222825;28;94024;-73
2023/09/30 11:01:47;;;;;;;17.67;9.70;;;22.50;99.90;;;;;;6226500;28;95227;-73
2023/09/30 11:04:51;;;;;;;16.25;9.30;;;22.50;99.90;;;;;;6215965;28;94568;-73
2023/09/30 11:07:54;;;;;;;15.93;9.75;;;22.50;99.90;;;;;;6224143;28;94333;-73
2023/09/30 11:10:57;;;;;;;16.67;9.82;;;22.50;99.90;;;;;;6227054;28;94851;-74
2023/09/30 11:13:59;;;;;;;17.90;9.95;;;22.50;99.90;;;;;;6224079;28;92957;-73
2023/09/30 11:17:03;;;;;;;17.35;9.93;;;22.50;99.90;;;;;;6218639;28;94318;-73
2023/09/30 11:20:09;;;;;;;16.65;10.15;;;22.50;99.90;;;;;;6225722;28;94143;-74
2023/09/30 11:23:12;;;;;;;17.05;10.25;;;22.50;99.90;;;;;;6212536;28;93353;-74
2023/09/30 11:26:14;;;;;;;17.48;10.52;;;22.50;99.90;;;;;;6220698;28;94760;-73
2023/09/30 11:29:17;;;;;;;17.88;10.70;;;22.50;99.90;;;;;;6222833;28;94131;-73
2023/09/30 11:32:26;;;;;;;18.05;10.32;;;22.50;99.90;;;;;;6224415;28;94929;-73
2023/09/30 11:35:30;;;;;;;17.52;10.50;;;22.40;99.90;;;;;;6224565;28;94346;-73
2023/09/30 11:38:33;;;;;;;19.75;11.15;;;22.50;99.90;;;;;;6223928;28;94059;-73
2023/09/30 11:41:38;;;;;;;19.48;11.20;;;22.50;99.90;;;;;;6224954;28;94133;-73
2023/09/30 11:44:47;;;;;;;19.30;11.63;;;22.50;99.90;;;;;;6224898;28;94110;-74
2023/09/30 11:47:49;;;;;;;18.02;11.38;;;22.50;99.90;;;;;;6230102;28;94179;-73
2023/09/30 11:50:55;;;;;;;18.13;10.77;;;22.50;99.90;;;;;;6229950;28;94279;-73
2023/09/30 11:53:57;;;;;;;18.77;11.20;;;22.50;99.90;;;;;;6229851;28;93378;-73
2023/09/30 11:57:00;;;;;;;19.15;11.68;;;22.50;99.90;;;;;;6230231;28;93973;-73
2023/09/30 12:00:13;;;;;;;21.48;12.38;;;22.50;99.90;;;;;;6223116;28;94152;-73
2023/09/30 12:03:14;;;;;;;22.73;12.95;;;22.50;99.90;;;;;;6229110;28;95011;-73
2023/09/30 12:06:18;;;;;;;28.77;14.63;;;22.50;99.90;;;;;;6227115;28;94079;-72
2023/09/30 12:09:25;;;;;;;23.80;13.35;;;22.50;99.90;;;;;;6230756;28;94045;-72
2023/09/30 12:12:27;;;;;;;21.02;12.80;;;22.50;99.90;;;;;;6221304;28;95399;-74
2023/09/30 12:15:29;;;;;;;22.88;12.80;;;22.50;99.90;;;;;;6228503;28;92987;-73
2023/09/30 12:18:31;;;;;;;22.17;12.50;;;22.50;99.90;;;;;;6225038;28;94089;-73
2023/09/30 12:21:36;;;;;;;23.13;13.63;;;22.50;99.90;;;;;;6228116;28;94051;-74
2023/09/30 12:24:39;;;;;;;22.30;12.77;;;22.50;99.90;;;;;;6229139;28;93517;-72
2023/09/30 12:27:41;;;;;;;22.73;13.10;;;22.50;99.90;;;;;;6213453;28;94085;-73
2023/09/30 12:30:43;;;;;;;20.98;13.07;;;22.50;99.90;;;;;;6220427;28;94047;-72
2023/09/30 12:33:50;;;;;;;24.60;13.90;;;22.50;99.90;;;;;;6226018;28;95850;-73
2023/09/30 12:36:53;;;;;;;23.52;14.25;;;22.50;99.90;;;;;;6219421;28;94083;-73
2023/09/30 12:39:55;;;;;;;24.75;14.10;;;22.50;99.90;;;;;;6227641;28;92978;-73
2023/09/30 12:42:57;;;;;;;25.00;13.90;;;22.50;99.90;;;;;;6227442;28;94065;-73
2023/09/30 12:45:59;;;;;;;26.27;14.65;;;22.50;99.90;;;;;;6217246;28;94377;-73
2023/09/30 12:49:02;;;;;;;26.63;14.27;;;22.50;99.90;;;;;;6215941;28;94095;-73
2023/09/30 12:52:07;;;;;;;24.30;13.70;;;22.50;99.90;;;;;;6222596;28;94093;-72
2023/09/30 12:55:10;;;;;;;24.48;14.38;;;22.50;99.90;;;;;;6229726;28;93789;-73
2023/09/30 12:58:12;;;;;;;26.27;14.65;;;22.50;99.90;;;;;;6225232;28;94218;-73
2023/09/30 13:01:14;;;;;;;23.50;14.10;;;22.50;99.90;;;;;;6229530;28;94013;-73
2023/09/30 13:04:16;;;;;;;24.05;13.75;;;22.50;99.90;;;;;;6226626;28;95053;-73
2023/09/30 13:07:20;;;;;;;24.27;14.27;;;22.50;99.90;;;;;;6228375;28;94422;-73
2023/09/30 13:10:22;;;;;;;25.02;13.70;;;22.50;99.90;;;;;;6226727;28;94125;-74
2023/09/30 13:13:24;;;;;;;25.33;13.85;;;22.50;99.90;;;;;;6228713;28;94237;-73
2023/09/30 13:16:26;;;;;;;21.83;13.13;;;22.50;99.90;;;;;;6224889;28;93996;-73
2023/09/30 13:19:28;;;;;;;22.67;13.15;;;22.50;99.90;;;;;;6225277;28;94516;-73
2023/09/30 13:22:31;;;;;;;24.17;13.80;;;22.50;99.90;;;;;;6226794;28;94164;-73
2023/09/30 13:25:34;;;;;;;21.95;13.82;;;22.50;99.90;;;;;;6217910;28;93136;-73
2023/09/30 13:28:35;;;;;;;24.73;13.88;;;22.50;99.90;;;;;;6228638;28;94207;-73
2023/09/30 13:31:38;;;;;;;23.83;14.30;;;22.40;99.90;;;;;;6222093;28;93044;-73
2023/09/30 13:34:39;;;;;;;21.85;13.48;;;22.50;99.90;;;;;;6223488;28;94957;-74
2023/09/30 13:37:43;;;;;;;24.15;13.43;;;22.50;99.90;;;;;;6220041;28;94102;-73
2023/09/30 13:40:45;;;;;;;22.25;12.93;;;22.50;99.90;;;;;;6227254;28;94209;-73
2023/09/30 13:43:47;;;;;;;21.85;13.00;;;22.50;99.90;;;;;;6216321;28;94365;-73
2023/09/30 13:46:49;;;;;;;22.60;12.68;;;22.50;99.90;;;;;;6216150;28;93960;-74
2023/09/30 13:49:51;;;;;;;21.05;12.65;;;22.50;99.90;;;;;;6226423;28;94104;-73
2023/09/30 13:52:55;;;;;;;21.17;12.63;;;22.50;99.90;;;;;;6227724;28;93777;-73
2023/09/30 13:55:57;;;;;;;22.33;13.75;;;22.50;99.90;;;;;;6220522;28;93440;-73
2023/09/30 13:58:59;;;;;;;22.52;12.98;;;22.50;99.90;;;;;;6219842;28;94043;-73
2023/09/30 14:02:02;;;;;;;20.73;12.93;;;22.50;99.90;;;;;;6218669;28;94194;-73
2023/09/30 14:05:07;;;;;;;19.63;11.90;;;22.50;99.90;;;;;;6215445;28;93921;-74
2023/09/30 14:08:11;;;;;;;20.98;12.40;;;22.50;99.90;;;;;;6218161;28;94305;-74
2023/09/30 14:11:13;;;;;;;20.38;12.43;;;22.50;99.90;;;;;;6210528;28;94141;-74
2023/09/30 14:14:15;;;;;;;20.98;12.30;;;22.50;99.90;;;;;;6215643;28;94339;-73
2023/09/30 14:17:16;;;;;;;21.02;11.88;;;22.50;99.90;;;;;;6226903;28;94454;-73
2023/09/30 14:20:18;;;;;;;20.17;12.45;;;22.50;99.90;;;;;;6227390;28;94127;-73
2023/09/30 14:23:23;;;;;;;20.85;12.80;;;22.50;99.90;;;;;;6226513;28;94189;-73
2023/09/30 14:26:25;;;;;;;20.55;12.27;;;22.50;99.90;;;;;;6228148;28;93570;-74
2023/09/30 14:29:28;;;;;;;20.00;12.20;;;22.50;99.90;;;;;;6213114;28;94166;-74
2023/09/30 14:32:29;;;;;;;18.30;11.40;;;22.50;99.90;;;;;;6216711;28;94057;-73
2023/09/30 14:35:34;;;;;;;20.17;12.25;;;22.50;99.90;;;;;;6225876;28;95010;-74
2023/09/30 14:38:37;;;;;;;18.77;11.90;;;22.50;99.90;;;;;;6217603;28;93037;-73
2023/09/30 14:41:39;;;;;;;18.98;11.77;;;22.50;99.90;;;;;;6224158;28;95411;-75
2023/09/30 14:44:42;;;;;;;17.75;11.57;;;22.50;99.90;;;;;;6226076;28;93500;-74
2023/09/30 14:47:44;;;;;;;19.42;12.35;;;22.50;99.90;;;;;;6225911;28;94559;-74
2023/09/30 14:50:50;;;;;;;20.38;11.65;;;22.50;99.90;;;;;;6226497;28;94110;-73
2023/09/30 14:53:54;;;;;;;21.10;11.90;;;22.50;99.90;;;;;;6226008;28;94079;-74
2023/09/30 14:56:56;;;;;;;18.52;11.52;;;22.50;99.90;;;;;;6227818;28;93662;-74
2023/09/30 14:59:59;;;;;;;18.70;11.23;;;22.50;99.90;;;;;;6225149;28;94120;-73
2023/09/30 15:03:01;;;;;;;18.80;11.63;;;22.50;99.90;;;;;;6221390;28;94411;-74
2023/09/30 15:06:04;;;;;;;18.35;11.27;;;22.50;99.90;;;;;;6205785;28;93775;-74
2023/09/30 15:09:09;;;;;;;19.05;11.55;;;22.50;99.90;;;;;;6213677;28;94249;-75
2023/09/30 15:12:11;;;;;;;18.30;10.77;;;22.50;99.90;;;;;;6226122;28;94176;-74
2023/09/30 15:15:13;;;;;;;16.65;10.68;;;22.50;99.90;;;;;;6226295;28;94055;-73
2023/09/30 15:18:15;;;;;;;17.45;10.75;;;22.50;99.90;;;;;;6225518;28;94473;-74
2023/09/30 15:21:17;;;;;;;19.83;11.65;;;22.50;99.90;;;;;;6220993;28;94187;-75
2023/09/30 15:24:21;;;;;;;18.15;11.10;;;22.50;99.90;;;;;;6225331;28;94516;-73
2023/09/30 15:27:24;;;;;;;16.13;10.63;;;22.60;99.90;;;;;;6212724;28;93321;-74
2023/09/30 15:30:26;;;;;;;16.95;10.50;;;22.50;99.90;;;;;;6221168;28;94038;-73
2023/09/30 15:33:30;;;;;;;17.58;10.63;;;22.50;99.90;;;;;;6225821;28;94413;-73
2023/09/30 15:36:32;;;;;;;17.17;10.43;;;22.50;99.90;;;;;;6225537;28;94991;-73
2023/09/30 15:39:39;;;;;;;17.08;10.13;;;22.50;99.90;;;;;;6225963;28;94024;-73
2023/09/30 15:42:41;;;;;;;16.88;10.88;;;22.60;99.90;;;;;;6225895;28;94051;-74